TO26 weather

Campo di Volo Valsusa
Vaie (TO), Piedmont, Italy

Public forecast

Using degrees Celsius for public forecast. Weather courtesy of forecast.io.

METAR (pilot weather report)

Report is more than 6 hours old.

Closest report is Torino-Aeritalia Airport, 13.5 nm (25.0 km) E. Retrieved 2019/09/20 16:50 UTC (9 hours ago):

LIMA 201650Z VRB02KT 9999 BKN049 19/11 Q1024

TAF (pilot weather forecast)

Forecast is more than 12 hours old.

Closest forecast is Turin Airport, 16.2 nm (30.1 km) ENE. Retrieved 2019/09/20 00:00 UTC (1 day ago):

TAF LIMF 202300Z 2100/2124 35005KT 9999 BKN050